createdAt,value
2019-03-15T00:00:44.267Z,18.92
2019-03-15T00:03:18.396Z,19.48
2019-03-15T00:05:52.457Z,18.17
2019-03-15T00:08:26.715Z,20.37
2019-03-15T00:11:00.654Z,18.45
2019-03-15T00:13:34.702Z,17.90
2019-03-15T00:16:09.098Z,18.07
2019-03-15T00:18:43.318Z,19.80
2019-03-15T00:21:17.581Z,21.37
2019-03-15T00:23:51.909Z,17.52
2019-03-15T00:26:26.209Z,18.40
2019-03-15T00:29:00.508Z,21.62
2019-03-15T00:31:34.935Z,23.40
2019-03-15T00:34:09.743Z,19.85
2019-03-15T00:36:43.860Z,23.80
2019-03-15T00:39:17.989Z,20.30
2019-03-15T00:41:52.230Z,22.25
2019-03-15T00:44:26.365Z,19.32
2019-03-15T00:47:00.650Z,20.35
2019-03-15T00:49:34.758Z,22.60
2019-03-15T00:52:08.964Z,21.25
2019-03-15T00:54:44.189Z,21.40
2019-03-15T00:57:18.132Z,19.62
2019-03-15T00:59:52.318Z,22.73
2019-03-15T01:02:26.407Z,24.10
2019-03-15T01:05:00.971Z,22.32
2019-03-15T01:07:35.249Z,23.20
2019-03-15T01:10:09.540Z,20.52
2019-03-15T01:12:43.819Z,21.25
2019-03-15T01:15:18.489Z,22.17
2019-03-15T01:17:52.851Z,22.48
2019-03-15T01:20:27.022Z,24.55
2019-03-15T01:23:01.065Z,21.87
2019-03-15T01:25:35.243Z,22.50
2019-03-15T01:28:09.854Z,27.37
2019-03-15T01:30:45.037Z,28.92
2019-03-15T01:33:19.236Z,28.85
2019-03-15T01:35:54.048Z,31.40
2019-03-15T01:38:28.435Z,36.33
2019-03-15T01:41:02.497Z,31.10
2019-03-15T01:43:36.725Z,34.00
2019-03-15T01:46:10.983Z,30.20
2019-03-15T01:48:45.140Z,38.30
2019-03-15T01:51:19.448Z,40.35
2019-03-15T01:53:53.847Z,42.43
2019-03-15T01:56:27.960Z,60.48
2019-03-15T01:59:02.355Z,50.35
2019-03-15T02:01:36.786Z,50.58
2019-03-15T02:04:11.163Z,47.50
2019-03-15T02:06:45.996Z,50.38
2019-03-15T02:09:20.721Z,51.02
2019-03-15T02:11:55.553Z,49.15
2019-03-15T02:14:29.743Z,50.70
2019-03-15T02:17:03.566Z,41.98
2019-03-15T02:19:37.396Z,41.23
2019-03-15T02:22:11.388Z,42.65
2019-03-15T02:24:45.707Z,41.23
2019-03-15T02:27:20.022Z,43.73
2019-03-15T02:29:54.413Z,42.17
2019-03-15T02:32:28.651Z,46.75
2019-03-15T02:35:02.855Z,41.28
2019-03-15T02:37:37.062Z,40.05
2019-03-15T02:40:11.261Z,39.75
2019-03-15T02:42:45.423Z,42.58
2019-03-15T02:45:19.739Z,43.98
2019-03-15T02:47:53.780Z,45.85
2019-03-15T02:50:29.195Z,39.20
2019-03-15T02:53:03.663Z,41.83
2019-03-15T02:55:37.947Z,43.85
2019-03-15T02:58:12.361Z,40.73
2019-03-15T03:00:46.708Z,45.03
2019-03-15T03:03:21.136Z,44.67
2019-03-15T03:05:55.714Z,56.98
2019-03-15T03:08:29.916Z,51.50
2019-03-15T03:11:04.564Z,49.40
2019-03-15T03:13:38.804Z,49.15
2019-03-15T03:16:13.388Z,45.43
2019-03-15T03:18:47.370Z,52.20
2019-03-15T03:21:21.565Z,48.17
2019-03-15T03:23:56.702Z,52.13
2019-03-15T03:26:31.602Z,60.10
2019-03-15T03:29:05.869Z,55.38
2019-03-15T03:31:39.980Z,77.62
2019-03-15T03:34:14.356Z,73.45
2019-03-15T03:36:48.854Z,74.87
2019-03-15T03:39:23.025Z,74.40
2019-03-15T03:41:57.377Z,76.33
2019-03-15T03:44:31.402Z,78.22
2019-03-15T03:47:05.587Z,65.97
2019-03-15T03:49:39.869Z,73.35
2019-03-15T03:52:14.155Z,65.55
2019-03-15T03:54:48.443Z,65.65
2019-03-15T03:57:22.672Z,70.25
2019-03-15T03:59:56.804Z,59.67
2019-03-15T04:02:33.058Z,68.92
2019-03-15T04:05:07.727Z,106.78
2019-03-15T04:07:42.130Z,114.85
2019-03-15T04:10:16.294Z,118.62
2019-03-15T04:12:50.602Z,113.22
2019-03-15T04:15:24.888Z,116.62
2019-03-15T04:17:59.505Z,109.12
2019-03-15T04:20:33.459Z,96.35
2019-03-15T04:23:07.799Z,102.53
2019-03-15T04:25:42.268Z,103.25
2019-03-15T04:28:16.753Z,105.27
2019-03-15T04:30:50.833Z,103.07
2019-03-15T04:33:25.526Z,95.83
2019-03-15T04:35:59.714Z,93.47
2019-03-15T04:38:34.179Z,94.15
2019-03-15T04:41:08.803Z,103.07
2019-03-15T04:43:44.154Z,96.55
2019-03-15T04:46:18.478Z,97.80
2019-03-15T04:48:52.591Z,95.22
2019-03-15T04:51:26.710Z,121.85
2019-03-15T04:54:00.965Z,104.10
2019-03-15T04:56:35.328Z,105.60
2019-03-15T04:59:09.754Z,119.10
2019-03-15T05:01:43.895Z,137.97
2019-03-15T05:04:18.206Z,133.05
2019-03-15T05:06:52.537Z,136.22
2019-03-15T05:09:27.076Z,156.02
2019-03-15T05:12:01.292Z,144.13
2019-03-15T05:14:35.811Z,181.80
2019-03-15T05:17:10.153Z,183.70
2019-03-15T05:19:44.794Z,170.00
2019-03-15T05:22:19.450Z,180.27
2019-03-15T05:24:54.754Z,181.28
2019-03-15T05:27:28.972Z,214.75
2019-03-15T05:30:03.188Z,247.95
2019-03-15T05:32:38.004Z,201.22
2019-03-15T05:35:12.467Z,178.78
2019-03-15T05:37:46.592Z,220.10
2019-03-15T05:40:21.029Z,189.57
2019-03-15T05:42:56.081Z,169.77
2019-03-15T05:45:31.353Z,148.75
2019-03-15T05:48:05.291Z,148.60
2019-03-15T05:50:40.927Z,144.13
2019-03-15T05:53:15.228Z,135.75
2019-03-15T05:55:49.298Z,117.75
2019-03-15T05:58:24.534Z,119.35
2019-03-15T06:00:59.265Z,174.10
2019-03-15T06:03:47.441Z,184.10
2019-03-15T06:06:10.260Z,192.53
2019-03-15T06:08:44.913Z,153.68
2019-03-15T06:11:19.466Z,146.53
2019-03-15T06:13:53.965Z,137.85
2019-03-15T06:16:28.398Z,126.72
2019-03-15T06:19:04.072Z,121.70
2019-03-15T06:21:38.473Z,111.65
2019-03-15T06:24:13.183Z,115.47
2019-03-15T06:26:48.082Z,105.43
2019-03-15T06:29:22.371Z,96.40
2019-03-15T06:31:56.970Z,91.47
2019-03-15T06:34:31.368Z,87.85
2019-03-15T06:37:06.229Z,86.85
2019-03-15T06:39:40.731Z,73.65
2019-03-15T06:42:15.205Z,77.80
2019-03-15T06:44:57.742Z,68.70
2019-03-15T06:47:25.859Z,69.20
2019-03-15T06:50:01.502Z,60.12
2019-03-15T06:52:37.525Z,56.65
2019-03-15T06:55:13.832Z,65.50
2019-03-15T06:57:51.098Z,62.10
2019-03-15T07:00:27.303Z,60.60
2019-03-15T07:03:03.022Z,55.75
2019-03-15T07:05:39.260Z,59.35
2019-03-15T07:08:18.046Z,56.30
2019-03-15T07:10:55.455Z,58.70
2019-03-15T07:13:32.975Z,57.65
2019-03-15T07:16:10.410Z,65.75
2019-03-15T07:18:48.042Z,84.13
2019-03-15T07:21:25.607Z,70.52
2019-03-15T07:24:03.049Z,67.17
2019-03-15T07:26:44.169Z,71.28
2019-03-15T07:29:21.721Z,69.40
2019-03-15T07:31:59.012Z,61.20
2019-03-15T07:34:36.234Z,59.95
2019-03-15T07:37:13.474Z,67.45
2019-03-15T07:39:50.677Z,60.10
2019-03-15T07:42:25.707Z,72.22
2019-03-15T07:45:00.517Z,65.22
2019-03-15T07:47:35.052Z,61.58
2019-03-15T07:50:14.006Z,60.98
2019-03-15T07:52:47.289Z,61.53
2019-03-15T07:55:22.033Z,57.17
2019-03-15T07:57:57.664Z,54.38
2019-03-15T08:00:31.870Z,54.18
2019-03-15T08:03:06.333Z,54.60
2019-03-15T08:05:40.778Z,46.48
2019-03-15T08:08:15.486Z,54.77
2019-03-15T08:10:50.618Z,49.88
2019-03-15T08:13:27.002Z,50.60
2019-03-15T08:16:03.798Z,46.63
2019-03-15T08:18:41.238Z,50.23
2019-03-15T08:21:18.824Z,52.95
2019-03-15T08:23:56.297Z,47.78
2019-03-15T08:26:33.707Z,43.00
2019-03-15T08:29:11.265Z,57.95
2019-03-15T08:31:48.533Z,47.53
2019-03-15T08:34:25.963Z,51.18
2019-03-15T08:37:05.802Z,47.33
2019-03-15T08:39:42.876Z,48.95
2019-03-15T08:42:19.789Z,48.15
2019-03-15T08:44:57.883Z,51.63
2019-03-15T08:47:35.871Z,43.60
2019-03-15T08:50:15.766Z,57.58
2019-03-15T08:52:54.317Z,59.38
2019-03-15T08:55:31.343Z,63.33
2019-03-15T08:58:15.351Z,48.15
2019-03-15T09:00:48.448Z,48.38
2019-03-15T09:03:28.506Z,44.88
2019-03-15T09:06:07.321Z,43.40
2019-03-15T09:08:46.922Z,50.03
2019-03-15T09:11:25.532Z,42.17
2019-03-15T09:14:06.446Z,42.03
2019-03-15T09:16:44.846Z,40.20
2019-03-15T09:19:21.937Z,46.00
2019-03-15T09:22:00.752Z,54.15
2019-03-15T09:24:41.397Z,55.45
2019-03-15T09:27:18.221Z,58.73
2019-03-15T09:30:00.399Z,59.50
2019-03-15T09:32:44.254Z,44.42
2019-03-15T09:35:21.816Z,44.85
2019-03-15T09:38:01.919Z,48.52
2019-03-15T09:40:39.046Z,39.95
2019-03-15T09:43:15.986Z,37.20
2019-03-15T09:45:55.553Z,44.03
2019-03-15T09:48:32.530Z,41.28
2019-03-15T09:51:09.889Z,39.88
2019-03-15T09:53:48.302Z,42.80
2019-03-15T09:56:36.578Z,44.53
2019-03-15T09:59:19.125Z,36.83
2019-03-15T10:02:02.902Z,31.27
2019-03-15T10:04:44.188Z,39.85
2019-03-15T10:07:37.473Z,37.93
2019-03-15T10:10:13.418Z,33.63
2019-03-15T10:12:44.762Z,36.80
2019-03-15T10:15:26.473Z,35.33
2019-03-15T10:18:05.593Z,35.33
2019-03-15T10:20:45.895Z,33.15
2019-03-15T10:23:25.109Z,43.87
2019-03-15T10:26:05.857Z,53.40
2019-03-15T10:28:46.085Z,43.15
2019-03-15T10:31:26.638Z,43.42
2019-03-15T10:34:07.188Z,40.67
2019-03-15T10:36:44.364Z,37.25
2019-03-15T10:39:22.751Z,48.05
2019-03-15T10:42:00.085Z,38.65
2019-03-15T10:44:38.238Z,38.02
2019-03-15T10:47:15.140Z,35.35
2019-03-15T10:49:52.216Z,38.42
2019-03-15T10:52:31.768Z,36.73
2019-03-15T10:55:08.856Z,35.65
2019-03-15T10:57:45.888Z,29.30
2019-03-15T11:00:24.442Z,31.15
2019-03-15T11:03:02.848Z,30.00
2019-03-15T11:05:39.661Z,30.65
2019-03-15T11:08:15.499Z,35.25
2019-03-15T11:10:49.984Z,29.80
2019-03-15T11:13:24.655Z,27.20
2019-03-15T11:15:59.014Z,28.90
2019-03-15T11:18:33.249Z,34.33
2019-03-15T11:21:07.244Z,34.30
2019-03-15T11:23:41.665Z,37.98
2019-03-15T11:26:15.960Z,37.63
2019-03-15T11:28:50.330Z,33.65
2019-03-15T11:31:24.740Z,40.55
2019-03-15T11:33:59.011Z,33.58
2019-03-15T11:36:33.385Z,42.75
2019-03-15T11:39:09.809Z,44.33
2019-03-15T11:41:43.950Z,43.70
2019-03-15T11:44:20.175Z,36.50
2019-03-15T11:46:56.445Z,34.33
2019-03-15T11:49:33.536Z,35.83
2019-03-15T11:52:11.256Z,41.68
2019-03-15T11:54:49.859Z,38.08
2019-03-15T11:57:25.143Z,32.83
2019-03-15T12:00:00.164Z,34.63
2019-03-15T12:02:36.168Z,36.48
2019-03-15T12:05:11.036Z,36.75
2019-03-15T12:07:45.451Z,32.58
2019-03-15T12:10:21.697Z,43.02
2019-03-15T12:12:55.879Z,32.95
2019-03-15T12:15:30.060Z,25.70
2019-03-15T12:18:04.562Z,37.85
2019-03-15T12:20:38.601Z,35.20
2019-03-15T12:23:12.974Z,29.35
2019-03-15T12:25:47.164Z,29.80
2019-03-15T12:28:21.989Z,36.88
2019-03-15T12:30:56.324Z,38.75
2019-03-15T12:33:30.696Z,32.05
2019-03-15T12:36:05.127Z,35.78
2019-03-15T12:38:39.325Z,29.90
2019-03-15T12:41:13.541Z,33.48
2019-03-15T12:43:48.913Z,33.53
2019-03-15T12:46:23.187Z,28.00
2019-03-15T12:48:58.561Z,28.00
2019-03-15T12:51:32.865Z,34.95
2019-03-15T12:54:07.130Z,37.93
2019-03-15T12:56:53.238Z,28.55
2019-03-15T12:59:17.164Z,41.25
2019-03-15T13:01:51.436Z,39.75
2019-03-15T13:04:25.481Z,30.57
2019-03-15T13:06:59.638Z,30.30
2019-03-15T13:09:33.908Z,31.17
2019-03-15T13:12:08.121Z,33.42
2019-03-15T13:14:42.148Z,33.83
2019-03-15T13:17:16.390Z,28.00
2019-03-15T13:19:55.325Z,33.73
2019-03-15T13:22:26.404Z,30.97
2019-03-15T13:25:00.506Z,33.80
2019-03-15T13:27:35.055Z,34.30
2019-03-15T13:30:09.996Z,30.70
2019-03-15T13:32:44.350Z,41.02
2019-03-15T13:35:18.821Z,38.65
2019-03-15T13:37:53.478Z,33.65
2019-03-15T13:40:27.833Z,40.10
2019-03-15T13:43:02.109Z,37.08
2019-03-15T13:45:36.108Z,41.25
2019-03-15T13:48:10.554Z,37.33
2019-03-15T13:50:44.937Z,44.10
2019-03-15T13:53:19.649Z,38.78
2019-03-15T13:55:53.914Z,36.48
2019-03-15T13:58:28.432Z,37.35
2019-03-15T14:01:03.369Z,32.90
2019-03-15T14:03:38.810Z,39.15
2019-03-15T14:06:13.306Z,39.78
2019-03-15T14:08:48.028Z,40.10
2019-03-15T14:11:22.619Z,38.17
2019-03-15T14:13:57.850Z,33.50
2019-03-15T14:16:32.390Z,34.05
2019-03-15T14:19:06.455Z,37.55
2019-03-15T14:21:40.706Z,33.30
2019-03-15T14:24:14.950Z,32.65
2019-03-15T14:26:51.012Z,39.42
2019-03-15T14:29:25.219Z,73.90
2019-03-15T14:31:59.312Z,80.28
2019-03-15T14:34:33.453Z,63.68
2019-03-15T14:37:10.287Z,67.65
2019-03-15T14:39:44.670Z,79.07
2019-03-15T14:42:19.107Z,61.75
2019-03-15T14:44:53.474Z,52.78
2019-03-15T14:47:27.879Z,48.98
2019-03-15T14:50:01.984Z,53.68
2019-03-15T14:52:36.051Z,53.17
2019-03-15T14:55:10.948Z,64.75
2019-03-15T14:57:52.358Z,65.80
2019-03-15T15:00:20.998Z,72.53
2019-03-15T15:02:54.980Z,55.40
2019-03-15T15:05:29.050Z,55.60
2019-03-15T15:08:03.390Z,59.27
2019-03-15T15:10:37.386Z,57.50
2019-03-15T15:13:11.581Z,53.83
2019-03-15T15:15:45.983Z,59.13
2019-03-15T15:18:20.233Z,51.92
2019-03-15T15:20:54.672Z,52.08
2019-03-15T15:23:29.586Z,54.27
2019-03-15T15:26:04.869Z,56.15
2019-03-15T15:28:38.918Z,51.15
2019-03-15T15:31:13.159Z,56.28
2019-03-15T15:33:48.217Z,54.53
2019-03-15T15:36:22.377Z,53.02
2019-03-15T15:38:56.408Z,53.58
2019-03-15T15:41:30.588Z,58.20
2019-03-15T15:44:04.973Z,60.15
2019-03-15T15:46:39.221Z,58.35
2019-03-15T15:49:13.241Z,59.42
2019-03-15T15:51:47.504Z,55.33
2019-03-15T15:54:21.688Z,64.00
2019-03-15T15:56:56.118Z,57.90
2019-03-15T15:59:30.355Z,61.18
2019-03-15T16:02:04.774Z,52.33
2019-03-15T16:04:38.851Z,52.90
2019-03-15T16:07:12.906Z,52.55
2019-03-15T16:09:47.160Z,56.05
2019-03-15T16:12:21.134Z,58.78
2019-03-15T16:14:55.225Z,51.77
2019-03-15T16:17:29.597Z,56.58
2019-03-15T16:20:03.874Z,55.73
2019-03-15T16:22:37.985Z,54.35
2019-03-15T16:25:12.610Z,48.08
2019-03-15T16:27:46.915Z,51.35
2019-03-15T16:30:21.098Z,53.65
2019-03-15T16:32:55.297Z,58.23
2019-03-15T16:35:29.508Z,62.55
2019-03-15T16:38:03.553Z,63.48
2019-03-15T16:40:37.969Z,58.80
2019-03-15T16:43:13.176Z,62.62
2019-03-15T16:45:47.330Z,69.50
2019-03-15T16:48:21.617Z,60.43
2019-03-15T16:50:55.897Z,62.25
2019-03-15T16:53:30.156Z,63.02
2019-03-15T16:56:04.562Z,57.85
2019-03-15T16:58:45.295Z,58.48
2019-03-15T17:01:14.769Z,66.12
2019-03-15T17:03:50.092Z,60.70
2019-03-15T17:06:24.388Z,60.80
2019-03-15T17:08:58.453Z,52.27
2019-03-15T17:11:32.758Z,53.08
2019-03-15T17:14:06.938Z,57.88
2019-03-15T17:16:41.128Z,66.15
2019-03-15T17:19:15.507Z,61.45
2019-03-15T17:21:50.290Z,60.80
2019-03-15T17:24:24.486Z,58.70
2019-03-15T17:27:01.026Z,55.78
2019-03-15T17:29:35.148Z,58.38
2019-03-15T17:32:09.420Z,56.58
2019-03-15T17:34:43.604Z,54.83
2019-03-15T17:37:17.985Z,53.90
2019-03-15T17:39:52.612Z,55.17
2019-03-15T17:42:26.931Z,55.70
2019-03-15T17:45:01.154Z,59.63
2019-03-15T17:47:36.437Z,64.40
2019-03-15T17:50:12.820Z,68.78
2019-03-15T17:52:48.051Z,60.10
2019-03-15T17:55:22.375Z,53.65
2019-03-15T17:57:56.744Z,50.03
2019-03-15T18:00:38.398Z,50.35
2019-03-15T18:03:20.853Z,68.63
2019-03-15T18:05:48.990Z,51.23
2019-03-15T18:08:23.269Z,56.18
2019-03-15T18:10:58.414Z,51.75
2019-03-15T18:13:32.416Z,53.70
2019-03-15T18:16:06.757Z,55.67
2019-03-15T18:18:40.826Z,56.85
2019-03-15T18:21:15.157Z,58.42
2019-03-15T18:23:49.403Z,51.02
2019-03-15T18:26:23.522Z,57.35
2019-03-15T18:28:57.750Z,53.42
2019-03-15T18:31:31.981Z,45.12
2019-03-15T18:34:06.256Z,48.55
2019-03-15T18:36:43.028Z,49.08
2019-03-15T18:39:16.594Z,45.95
2019-03-15T18:41:50.880Z,44.27
2019-03-15T18:44:24.908Z,46.15
2019-03-15T18:46:59.120Z,43.87
2019-03-15T18:49:33.319Z,44.13
2019-03-15T18:52:07.877Z,41.28
2019-03-15T18:54:41.940Z,44.95
2019-03-15T18:57:15.951Z,39.42
2019-03-15T18:59:50.292Z,40.92
2019-03-15T19:02:24.481Z,45.78
2019-03-15T19:04:58.854Z,40.05
2019-03-15T19:07:32.817Z,41.30
2019-03-15T19:10:07.376Z,36.25
2019-03-15T19:12:41.492Z,38.58
2019-03-15T19:15:16.358Z,38.30
2019-03-15T19:17:50.588Z,38.78
2019-03-15T19:20:25.091Z,38.70
2019-03-15T19:22:59.327Z,39.90
2019-03-15T19:25:33.577Z,35.95
2019-03-15T19:28:07.885Z,41.75
2019-03-15T19:30:42.194Z,35.83
2019-03-15T19:33:16.377Z,35.88
2019-03-15T19:35:50.665Z,38.48
2019-03-15T19:38:24.639Z,36.77
2019-03-15T19:40:59.195Z,34.15
2019-03-15T19:43:33.379Z,37.38
2019-03-15T19:46:09.245Z,36.30
2019-03-15T19:48:43.587Z,34.18
2019-03-15T19:51:18.715Z,39.30
2019-03-15T19:53:52.832Z,34.35
2019-03-15T19:56:27.153Z,35.55
2019-03-15T19:59:01.165Z,33.60
2019-03-15T20:01:35.712Z,30.72
2019-03-15T20:04:09.963Z,31.55
2019-03-15T20:06:44.371Z,36.50
2019-03-15T20:09:18.652Z,35.00
2019-03-15T20:11:52.899Z,32.85
2019-03-15T20:14:27.067Z,37.33
2019-03-15T20:17:01.173Z,35.03
2019-03-15T20:19:35.231Z,34.53
2019-03-15T20:22:09.464Z,29.35
2019-03-15T20:24:44.795Z,42.73
2019-03-15T20:27:19.126Z,49.45
2019-03-15T20:29:53.366Z,37.90
2019-03-15T20:32:27.767Z,41.58
2019-03-15T20:35:02.016Z,37.98
2019-03-15T20:37:36.610Z,41.73
2019-03-15T20:40:11.013Z,39.20
2019-03-15T20:42:46.346Z,32.60
2019-03-15T20:45:20.579Z,37.40
2019-03-15T20:47:54.577Z,32.93
2019-03-15T20:50:28.869Z,44.60
2019-03-15T20:53:09.924Z,34.65
2019-03-15T20:55:39.523Z,34.70
2019-03-15T20:58:13.769Z,33.42
2019-03-15T21:00:47.883Z,38.40
2019-03-15T21:03:22.205Z,35.63
2019-03-15T21:05:56.496Z,33.88
2019-03-15T21:08:30.846Z,35.35
2019-03-15T21:11:05.136Z,34.25
2019-03-15T21:13:39.825Z,35.78
2019-03-15T21:16:13.765Z,35.17
2019-03-15T21:18:48.104Z,33.13
2019-03-15T21:21:22.389Z,35.65
2019-03-15T21:23:56.615Z,39.60
2019-03-15T21:26:30.602Z,32.90
2019-03-15T21:29:04.825Z,34.13
2019-03-15T21:31:38.845Z,32.88
2019-03-15T21:34:13.403Z,31.82
2019-03-15T21:36:47.588Z,32.98
2019-03-15T21:39:21.802Z,31.85
2019-03-15T21:41:55.797Z,36.35
2019-03-15T21:44:30.226Z,32.58
2019-03-15T21:47:04.380Z,29.12
2019-03-15T21:49:38.583Z,35.65
2019-03-15T21:52:13.809Z,30.75
2019-03-15T21:54:47.942Z,29.00
2019-03-15T21:57:22.167Z,26.90
2019-03-15T21:59:56.216Z,30.23
2019-03-15T22:02:30.682Z,33.20
2019-03-15T22:05:05.095Z,33.85
2019-03-15T22:07:39.588Z,35.45
2019-03-15T22:10:14.108Z,27.65
2019-03-15T22:12:48.420Z,30.92
2019-03-15T22:15:22.803Z,32.78
2019-03-15T22:17:57.254Z,29.20
2019-03-15T22:20:31.402Z,31.60
2019-03-15T22:23:05.942Z,30.88
2019-03-15T22:25:40.135Z,32.70
2019-03-15T22:28:14.231Z,36.23
2019-03-15T22:30:48.467Z,28.95
2019-03-15T22:33:22.540Z,31.93
2019-03-15T22:35:56.691Z,30.27
2019-03-15T22:38:30.909Z,30.85
2019-03-15T22:41:05.169Z,31.77
2019-03-15T22:43:39.196Z,28.15
2019-03-15T22:46:13.117Z,28.32
2019-03-15T22:48:47.339Z,28.35
2019-03-15T22:51:21.537Z,30.02
2019-03-15T22:53:55.570Z,32.53
2019-03-15T22:56:29.657Z,34.33
2019-03-15T22:59:04.161Z,33.00
2019-03-15T23:01:38.301Z,30.08
2019-03-15T23:04:12.609Z,29.85
2019-03-15T23:06:47.293Z,30.95
2019-03-15T23:09:21.257Z,28.57
2019-03-15T23:11:55.496Z,29.87
2019-03-15T23:14:31.159Z,27.13
2019-03-15T23:17:05.341Z,29.12
2019-03-15T23:19:40.372Z,29.50
2019-03-15T23:22:14.582Z,32.38
2019-03-15T23:24:48.796Z,29.57
2019-03-15T23:27:22.747Z,27.50
2019-03-15T23:29:56.926Z,28.80
2019-03-15T23:32:30.798Z,29.07
2019-03-15T23:35:05.011Z,29.07
2019-03-15T23:37:39.386Z,26.77
2019-03-15T23:40:13.628Z,27.32
2019-03-15T23:42:47.915Z,29.87
2019-03-15T23:45:22.015Z,28.42
2019-03-15T23:47:56.134Z,29.05
2019-03-15T23:50:30.347Z,29.57
2019-03-15T23:53:04.555Z,28.45
2019-03-15T23:55:38.907Z,31.10
2019-03-15T23:58:13.349Z,33.30
